createdAt,value
2018-03-26T00:02:26.624Z,8.43
2018-03-26T00:05:30.532Z,8.70
2018-03-26T00:08:33.697Z,8.60
2018-03-26T00:11:36.872Z,8.67
2018-03-26T00:14:40.779Z,8.70
2018-03-26T00:17:44.707Z,8.17
2018-03-26T00:20:47.836Z,8.07
2018-03-26T00:23:51.769Z,8.60
2018-03-26T00:26:55.379Z,8.77
2018-03-26T00:29:59.305Z,8.43
2018-03-26T00:33:03.349Z,8.07
2018-03-26T00:36:06.483Z,8.00
2018-03-26T00:39:09.650Z,8.23
2018-03-26T00:42:13.584Z,7.90
2018-03-26T00:45:17.485Z,7.93
2018-03-26T00:48:20.683Z,6.77
2018-03-26T00:51:23.816Z,7.43
2018-03-26T00:54:27.746Z,7.37
2018-03-26T00:57:31.700Z,7.53
2018-03-26T01:00:34.840Z,7.13
2018-03-26T01:03:38.034Z,7.07
2018-03-26T01:06:41.188Z,7.67
2018-03-26T01:09:44.352Z,7.33
2018-03-26T01:12:47.525Z,7.23
2018-03-26T01:15:51.419Z,7.27
2018-03-26T01:18:54.693Z,7.03
2018-03-26T01:21:57.843Z,7.03
2018-03-26T01:25:01.040Z,6.50
2018-03-26T01:28:04.812Z,6.50
2018-03-26T01:31:07.991Z,6.63
2018-03-26T01:34:11.262Z,6.50
2018-03-26T01:37:14.393Z,6.93
2018-03-26T01:40:17.574Z,6.73
2018-03-26T01:43:20.770Z,6.17
2018-03-26T01:46:23.895Z,6.20
2018-03-26T01:49:27.081Z,5.90
2018-03-26T01:52:30.225Z,6.87
2018-03-26T01:55:33.491Z,5.70
2018-03-26T01:58:36.680Z,6.30
2018-03-26T02:01:39.829Z,5.90
2018-03-26T02:04:43.003Z,5.80
2018-03-26T02:07:46.899Z,6.03
2018-03-26T02:10:50.074Z,5.67
2018-03-26T02:13:53.253Z,5.93
2018-03-26T02:16:57.175Z,6.13
2018-03-26T02:20:01.106Z,5.70
2018-03-26T02:23:05.043Z,5.67
2018-03-26T02:26:09.080Z,5.90
2018-03-26T02:29:12.242Z,5.40
2018-03-26T02:32:15.372Z,5.60
2018-03-26T02:35:18.528Z,5.90
2018-03-26T02:38:21.693Z,5.60
2018-03-26T02:41:25.625Z,5.43
2018-03-26T02:44:29.595Z,5.70
2018-03-26T02:47:32.722Z,5.70
2018-03-26T02:50:35.898Z,5.33
2018-03-26T02:53:39.063Z,5.70
2018-03-26T02:56:42.225Z,5.80
2018-03-26T02:59:45.498Z,5.47
2018-03-26T03:02:49.418Z,5.37
2018-03-26T03:05:53.351Z,5.03
2018-03-26T03:08:56.501Z,5.43
2018-03-26T03:11:59.667Z,5.07
2018-03-26T03:15:03.581Z,4.93
2018-03-26T03:18:06.763Z,4.57
2018-03-26T03:21:09.930Z,4.60
2018-03-26T03:24:13.070Z,4.80
2018-03-26T03:27:16.470Z,4.70
2018-03-26T03:30:19.627Z,4.77
2018-03-26T03:33:22.793Z,4.63
2018-03-26T03:36:25.957Z,4.47
2018-03-26T03:39:29.856Z,4.50
2018-03-26T03:42:33.020Z,4.60
2018-03-26T03:45:36.181Z,4.30
2018-03-26T03:48:39.345Z,4.80
2018-03-26T03:51:42.508Z,4.60
2018-03-26T03:54:45.733Z,4.40
2018-03-26T03:57:49.674Z,4.67
2018-03-26T04:00:53.614Z,4.27
2018-03-26T04:03:56.753Z,4.43
2018-03-26T04:06:59.927Z,4.57
2018-03-26T04:10:03.069Z,4.47
2018-03-26T04:13:06.243Z,4.30
2018-03-26T04:16:09.633Z,4.20
2018-03-26T04:19:13.540Z,4.50
2018-03-26T04:22:16.707Z,3.77
2018-03-26T04:25:19.835Z,3.93
2018-03-26T04:28:23.038Z,4.03
2018-03-26T04:31:26.205Z,3.77
2018-03-26T04:34:30.109Z,4.37
2018-03-26T04:37:33.308Z,3.70
2018-03-26T04:40:36.445Z,4.00
2018-03-26T04:43:40.366Z,3.50
2018-03-26T04:46:44.289Z,3.87
2018-03-26T04:49:48.209Z,3.70
2018-03-26T04:52:51.386Z,3.33
2018-03-26T04:55:54.578Z,3.20
2018-03-26T04:58:58.487Z,3.50
2018-03-26T05:02:01.660Z,3.30
2018-03-26T05:05:04.889Z,3.20
2018-03-26T05:08:08.110Z,3.70
2018-03-26T05:11:11.276Z,3.30
2018-03-26T05:14:14.446Z,3.67
2018-03-26T05:17:17.667Z,3.70
2018-03-26T05:20:20.846Z,294.00
2018-03-26T05:23:24.800Z,225.80
2018-03-26T05:26:27.949Z,164.80
2018-03-26T05:29:31.120Z,212.97
2018-03-26T05:32:34.296Z,262.93
2018-03-26T05:35:38.255Z,264.27
2018-03-26T05:38:41.437Z,268.73
2018-03-26T05:41:44.584Z,256.10
2018-03-26T05:44:47.756Z,247.77
2018-03-26T05:47:50.904Z,235.93
2018-03-26T05:50:54.094Z,236.97
2018-03-26T05:53:57.281Z,226.50
2018-03-26T05:57:01.202Z,224.33
2018-03-26T06:00:05.162Z,199.97
2018-03-26T06:03:08.325Z,173.77
2018-03-26T06:06:11.503Z,158.70
2018-03-26T06:09:14.675Z,161.23
2018-03-26T06:12:17.821Z,156.00
2018-03-26T06:15:20.991Z,170.87
2018-03-26T06:18:24.141Z,170.13
2018-03-26T06:21:27.317Z,168.23
2018-03-26T06:24:30.487Z,168.30
2018-03-26T06:27:33.643Z,178.33
2018-03-26T06:30:36.856Z,178.53
2018-03-26T06:33:40.038Z,176.67
2018-03-26T06:36:49.589Z,162.30
2018-03-26T06:39:53.527Z,92.83
2018-03-26T06:42:56.690Z,51.27
2018-03-26T06:45:59.869Z,32.73
2018-03-26T06:49:03.003Z,31.13
2018-03-26T06:52:18.155Z,17.93
2018-03-26T06:55:36.974Z,12.25
2018-03-26T06:58:40.203Z,10.77
2018-03-26T07:01:43.385Z,49.10
2018-03-26T07:04:46.530Z,39.63
2018-03-26T07:07:49.732Z,30.07
2018-03-26T07:10:52.909Z,14.33
2018-03-26T07:13:56.059Z,9.80
2018-03-26T07:16:59.274Z,7.87
2018-03-26T07:20:02.453Z,6.37
2018-03-26T07:23:05.612Z,5.70
2018-03-26T07:26:08.768Z,5.10
2018-03-26T07:29:11.901Z,4.73
2018-03-26T07:32:15.088Z,4.87
2018-03-26T07:35:18.224Z,4.53
2018-03-26T07:38:21.389Z,3.53
2018-03-26T07:41:24.606Z,11.90
2018-03-26T07:44:27.764Z,43.50
2018-03-26T07:47:30.960Z,67.87
2018-03-26T07:50:34.108Z,110.63
2018-03-26T07:53:38.036Z,77.90
2018-03-26T07:56:41.969Z,72.90
2018-03-26T07:59:45.876Z,60.87
2018-03-26T08:02:49.041Z,54.23
2018-03-26T08:05:52.262Z,49.30
2018-03-26T08:08:55.435Z,48.13
2018-03-26T08:11:59.383Z,45.00
2018-03-26T08:15:02.674Z,50.03
2018-03-26T08:18:05.837Z,45.00
2018-03-26T08:21:08.977Z,40.97
2018-03-26T08:24:12.913Z,40.73
2018-03-26T08:27:16.090Z,36.50
2018-03-26T08:30:19.233Z,34.60
2018-03-26T08:33:22.406Z,34.47
2018-03-26T08:36:26.348Z,30.17
2018-03-26T08:39:30.297Z,139.37
2018-03-26T08:42:33.473Z,213.70
2018-03-26T08:45:38.127Z,146.77
2018-03-26T08:48:42.076Z,91.97
2018-03-26T08:51:45.221Z,58.93
2018-03-26T08:54:48.387Z,56.47
2018-03-26T08:57:52.510Z,42.63
2018-03-26T09:00:56.418Z,29.97
2018-03-26T09:03:59.628Z,28.80
2018-03-26T09:07:02.769Z,21.47
2018-03-26T09:10:05.949Z,20.97
2018-03-26T09:13:09.120Z,20.90
2018-03-26T09:16:12.264Z,18.43
2018-03-26T09:19:15.427Z,18.43
2018-03-26T09:22:18.575Z,18.23
2018-03-26T09:25:21.746Z,18.97
2018-03-26T09:28:24.927Z,16.80
2018-03-26T09:31:28.842Z,16.80
2018-03-26T09:34:32.822Z,17.37
2018-03-26T09:37:35.983Z,17.03
2018-03-26T09:40:39.915Z,16.77
2018-03-26T09:43:43.853Z,16.33
2018-03-26T09:46:46.996Z,15.00
2018-03-26T09:49:50.169Z,15.33
2018-03-26T09:52:53.371Z,15.37
2018-03-26T09:55:56.571Z,14.50
2018-03-26T09:59:00.525Z,14.53
2018-03-26T10:02:03.693Z,14.60
2018-03-26T10:05:06.869Z,14.37
2018-03-26T10:08:10.045Z,14.93
2018-03-26T10:11:13.196Z,14.13
2018-03-26T10:14:16.364Z,14.80
2018-03-26T10:17:19.528Z,14.33
2018-03-26T10:20:23.590Z,13.97
2018-03-26T10:23:26.793Z,13.90
2018-03-26T10:26:29.936Z,13.80
2018-03-26T10:29:33.111Z,13.50
2018-03-26T10:32:36.415Z,13.77
2018-03-26T10:35:39.577Z,12.73
2018-03-26T10:38:42.711Z,13.57
2018-03-26T10:41:45.889Z,12.13
2018-03-26T10:44:49.115Z,12.33
2018-03-26T10:47:52.252Z,12.33
2018-03-26T10:50:56.223Z,11.20
2018-03-26T10:53:59.379Z,11.60
2018-03-26T10:57:03.327Z,12.23
2018-03-26T11:00:06.493Z,11.10
2018-03-26T11:03:09.651Z,11.43
2018-03-26T11:06:12.824Z,11.27
2018-03-26T11:09:16.747Z,11.23
2018-03-26T11:12:19.921Z,10.87
2018-03-26T11:15:23.204Z,11.63
2018-03-26T11:18:26.362Z,10.87
2018-03-26T11:21:29.825Z,10.83
2018-03-26T11:24:32.976Z,11.43
2018-03-26T11:27:36.146Z,10.90
2018-03-26T11:30:39.309Z,10.90
2018-03-26T11:33:42.445Z,9.90
2018-03-26T11:36:46.380Z,10.83
2018-03-26T11:39:49.532Z,10.77
2018-03-26T11:42:53.058Z,37.63
2018-03-26T11:45:56.394Z,102.93
2018-03-26T11:48:59.596Z,143.57
2018-03-26T11:52:03.545Z,151.17
2018-03-26T11:55:07.466Z,126.80
2018-03-26T11:58:11.409Z,106.57
2018-03-26T12:01:15.415Z,101.20
2018-03-26T12:04:18.537Z,102.07
2018-03-26T12:07:22.586Z,110.50
2018-03-26T12:10:25.814Z,116.93
2018-03-26T12:13:29.104Z,119.47
2018-03-26T12:16:32.290Z,114.53
2018-03-26T12:19:35.434Z,106.50
2018-03-26T12:22:38.642Z,104.53
2018-03-26T12:25:41.785Z,98.33
2018-03-26T12:28:56.958Z,91.83
2018-03-26T12:32:00.145Z,92.33
2018-03-26T12:35:15.212Z,87.03
2018-03-26T12:38:19.180Z,80.73
2018-03-26T12:41:22.360Z,74.17
2018-03-26T12:44:37.443Z,74.47
2018-03-26T12:47:40.613Z,73.30
2018-03-26T12:50:55.538Z,67.50
2018-03-26T12:53:59.527Z,67.70
2018-03-26T12:57:14.648Z,63.23
2018-03-26T13:00:18.554Z,57.83
2018-03-26T13:03:21.743Z,58.83
2018-03-26T13:06:24.936Z,53.80
2018-03-26T13:09:28.153Z,52.77
2018-03-26T13:12:31.328Z,50.73
2018-03-26T13:15:34.486Z,46.50
2018-03-26T13:18:37.649Z,48.03
2018-03-26T13:21:40.794Z,47.23
2018-03-26T13:24:43.977Z,43.07
2018-03-26T13:27:47.157Z,43.23
2018-03-26T13:30:51.105Z,44.77
2018-03-26T13:33:54.312Z,40.43
2018-03-26T13:36:57.534Z,39.73
2018-03-26T13:40:00.770Z,41.23
2018-03-26T13:43:03.941Z,38.33
2018-03-26T13:46:07.080Z,34.67
2018-03-26T13:49:10.262Z,39.97
2018-03-26T13:52:13.412Z,35.53
2018-03-26T13:55:16.598Z,33.83
2018-03-26T13:58:19.770Z,32.37
2018-03-26T14:01:23.703Z,30.60
2018-03-26T14:04:27.666Z,32.27
2018-03-26T14:07:30.816Z,35.77
2018-03-26T14:10:45.778Z,43.07
2018-03-26T14:14:00.597Z,47.03
2018-03-26T14:17:16.308Z,54.43
2018-03-26T14:20:20.241Z,57.10
2018-03-26T14:23:24.394Z,68.47
2018-03-26T14:26:27.588Z,136.77
2018-03-26T14:29:31.558Z,87.10
2018-03-26T14:32:34.704Z,48.37
2018-03-26T14:35:40.861Z,45.10
2018-03-26T14:38:44.006Z,42.90
2018-03-26T14:41:48.045Z,114.93
2018-03-26T14:44:51.192Z,75.20
2018-03-26T14:47:54.371Z,54.70
2018-03-26T14:50:57.727Z,46.07
2018-03-26T14:54:00.904Z,47.37
2018-03-26T14:57:04.077Z,41.37
2018-03-26T15:00:07.217Z,51.97
2018-03-26T15:03:10.452Z,40.87
2018-03-26T15:06:13.626Z,40.67
2018-03-26T15:09:17.544Z,37.80
2018-03-26T15:12:21.487Z,38.13
2018-03-26T15:15:24.716Z,35.63
2018-03-26T15:18:28.020Z,36.37
2018-03-26T15:21:31.197Z,34.60
2018-03-26T15:24:34.455Z,33.97
2018-03-26T15:27:37.637Z,33.33
2018-03-26T15:30:40.798Z,33.57
2018-03-26T15:33:43.964Z,31.83
2018-03-26T15:36:47.109Z,32.60
2018-03-26T15:39:50.276Z,30.37
2018-03-26T15:42:53.499Z,31.60
2018-03-26T15:45:56.657Z,32.10
2018-03-26T15:48:59.842Z,30.53
2018-03-26T15:52:02.988Z,30.87
2018-03-26T15:55:06.930Z,31.20
2018-03-26T15:58:10.096Z,29.50
2018-03-26T16:01:13.249Z,30.40
2018-03-26T16:04:16.435Z,28.60
2018-03-26T16:07:32.856Z,27.90
2018-03-26T16:10:36.038Z,28.57
2018-03-26T16:13:39.978Z,27.13
2018-03-26T16:16:43.116Z,27.17
2018-03-26T16:19:46.285Z,27.00
2018-03-26T16:22:49.434Z,26.93
2018-03-26T16:25:52.613Z,25.50
2018-03-26T16:28:55.866Z,25.33
2018-03-26T16:31:59.942Z,25.57
2018-03-26T16:35:03.899Z,24.97
2018-03-26T16:38:07.054Z,24.90
2018-03-26T16:41:10.253Z,24.67
2018-03-26T16:44:13.446Z,23.83
2018-03-26T16:47:16.601Z,23.33
2018-03-26T16:50:19.774Z,23.70
2018-03-26T16:53:22.925Z,23.40
2018-03-26T16:56:26.864Z,18.13
2018-03-26T16:59:30.042Z,13.10
2018-03-26T17:02:33.984Z,76.37
2018-03-26T17:05:37.165Z,65.43
2018-03-26T17:08:40.309Z,83.60
2018-03-26T17:11:43.485Z,102.63
2018-03-26T17:14:46.729Z,81.73
2018-03-26T17:17:50.668Z,72.63
2018-03-26T17:20:53.841Z,77.30
2018-03-26T17:23:56.981Z,71.23
2018-03-26T17:27:00.148Z,65.67
2018-03-26T17:30:03.297Z,59.90
2018-03-26T17:33:06.484Z,57.90
2018-03-26T17:36:10.443Z,54.30
2018-03-26T17:39:13.589Z,50.33
2018-03-26T17:42:16.771Z,49.23
2018-03-26T17:45:20.050Z,45.50
2018-03-26T17:48:24.100Z,43.40
2018-03-26T17:51:27.274Z,40.67
2018-03-26T17:54:31.207Z,39.27
2018-03-26T17:57:35.171Z,38.43
2018-03-26T18:00:38.778Z,36.63
2018-03-26T18:03:42.650Z,35.17
2018-03-26T18:06:45.903Z,33.20
2018-03-26T18:09:49.125Z,30.97
2018-03-26T18:12:52.337Z,31.67
2018-03-26T18:15:55.529Z,30.17
2018-03-26T18:18:59.584Z,27.03
2018-03-26T18:22:02.786Z,26.13
2018-03-26T18:25:06.710Z,25.83
2018-03-26T18:28:10.943Z,22.40
2018-03-26T18:31:14.153Z,22.47
2018-03-26T18:34:17.336Z,20.30
2018-03-26T18:37:21.255Z,19.77
2018-03-26T18:40:24.487Z,18.07
2018-03-26T18:43:28.449Z,16.13
2018-03-26T18:46:31.594Z,16.67
2018-03-26T18:49:34.789Z,16.60
2018-03-26T18:52:38.010Z,14.50
2018-03-26T18:55:41.177Z,14.53
2018-03-26T18:58:44.372Z,15.43
2018-03-26T19:01:47.515Z,13.03
2018-03-26T19:04:50.712Z,12.10
2018-03-26T19:07:53.857Z,11.63
2018-03-26T19:10:57.032Z,12.03
2018-03-26T19:14:00.228Z,10.63
2018-03-26T19:17:03.463Z,11.00
2018-03-26T19:20:07.161Z,9.80
2018-03-26T19:23:10.787Z,9.70
2018-03-26T19:26:13.981Z,9.40
2018-03-26T19:29:17.200Z,8.80
2018-03-26T19:32:20.366Z,8.83
2018-03-26T19:35:24.303Z,8.27
2018-03-26T19:38:28.366Z,7.43
2018-03-26T19:41:31.542Z,7.67
2018-03-26T19:44:35.824Z,6.63
2018-03-26T19:47:39.585Z,7.23
2018-03-26T19:50:44.082Z,6.63
2018-03-26T19:53:47.266Z,5.23
2018-03-26T19:56:50.471Z,6.23
2018-03-26T19:59:54.469Z,5.87
2018-03-26T20:02:57.654Z,6.53
2018-03-26T20:06:00.836Z,6.27
2018-03-26T20:09:04.155Z,4.83
2018-03-26T20:12:07.415Z,5.07
2018-03-26T20:15:10.703Z,4.53
2018-03-26T20:18:13.941Z,4.63
2018-03-26T20:21:17.261Z,5.43
2018-03-26T20:24:21.245Z,4.07
2018-03-26T20:27:24.457Z,3.80
2018-03-26T20:30:27.609Z,3.80
2018-03-26T20:33:31.594Z,3.57
2018-03-26T20:36:34.973Z,3.67
2018-03-26T20:39:38.150Z,3.90
2018-03-26T20:42:41.390Z,3.73
2018-03-26T20:45:45.356Z,3.90
2018-03-26T20:48:48.564Z,3.40
2018-03-26T20:51:51.741Z,3.23
2018-03-26T20:54:54.917Z,3.07
2018-03-26T20:57:58.089Z,3.50
2018-03-26T21:01:01.271Z,3.20
2018-03-26T21:04:04.497Z,3.17
2018-03-26T21:07:07.900Z,3.20
2018-03-26T21:10:11.075Z,2.83
2018-03-26T21:13:14.253Z,2.50
2018-03-26T21:16:17.441Z,2.97
2018-03-26T21:19:20.648Z,2.87
2018-03-26T21:22:23.863Z,2.67
2018-03-26T21:25:27.005Z,2.30
2018-03-26T21:28:30.191Z,2.90
2018-03-26T21:31:33.346Z,3.13
2018-03-26T21:34:37.398Z,2.47
2018-03-26T21:37:40.622Z,2.43
2018-03-26T21:40:43.813Z,2.47
2018-03-26T21:43:47.769Z,3.00
2018-03-26T21:46:51.074Z,2.60
2018-03-26T21:49:54.246Z,2.57
2018-03-26T21:52:57.492Z,2.13
2018-03-26T21:56:00.687Z,2.50
2018-03-26T21:59:04.109Z,2.23
2018-03-26T22:02:07.424Z,2.20
2018-03-26T22:05:10.645Z,2.07
2018-03-26T22:08:13.778Z,2.07
2018-03-26T22:11:16.937Z,2.07
2018-03-26T22:14:20.173Z,6.27
2018-03-26T22:17:23.394Z,2.73
2018-03-26T22:20:26.580Z,3.20
2018-03-26T22:23:29.814Z,7.07
2018-03-26T22:26:33.186Z,29.53
2018-03-26T22:29:36.390Z,49.50
2018-03-26T22:32:39.868Z,69.03
2018-03-26T22:35:43.935Z,78.57
2018-03-26T22:38:47.870Z,76.07
2018-03-26T22:41:51.115Z,80.77
2018-03-26T22:44:54.447Z,84.43
2018-03-26T22:47:57.612Z,86.10
2018-03-26T22:51:00.981Z,88.83
2018-03-26T22:54:04.570Z,99.10
2018-03-26T22:57:07.823Z,93.77
2018-03-26T23:00:11.693Z,92.93
2018-03-26T23:03:14.962Z,95.23
2018-03-26T23:06:18.227Z,97.63
2018-03-26T23:09:21.464Z,100.93
2018-03-26T23:12:24.695Z,108.27
2018-03-26T23:15:27.953Z,107.83
2018-03-26T23:18:31.206Z,106.03
2018-03-26T23:21:34.552Z,112.87
2018-03-26T23:24:37.780Z,104.30
2018-03-26T23:27:40.968Z,108.13
2018-03-26T23:30:44.917Z,104.80
2018-03-26T23:33:48.109Z,103.43
2018-03-26T23:36:52.154Z,100.43
2018-03-26T23:39:56.143Z,99.93
2018-03-26T23:42:59.324Z,97.63
2018-03-26T23:46:02.501Z,96.30
2018-03-26T23:49:06.538Z,93.13
2018-03-26T23:52:09.742Z,90.80
2018-03-26T23:55:12.907Z,95.83
2018-03-26T23:58:16.171Z,92.10
